Time;durP1;ratioP1;P1;durP2;ratioP2;P2;SDS_P1;SDS_P2;PMS_P1;PMS_P2;Temp;Humidity;BMP_temperature;BMP_pressure;BME280_temperature;BME280_humidity;BME280_pressure;Samples;Min_cycle;Max_cycle;Signal;HPM_P1;HPM_P2
2023/10/20 00:01:30;;;;;;;;;;;;;;;13.82;74.38;95419.94;4970488;28;20376;-62
2023/10/20 00:03:58;;;;;;;;;;;;;;;13.75;74.40;95422.69;4971537;28;19926;-62
2023/10/20 00:06:26;;;;;;;;;;;;;;;13.78;74.55;95414.47;4967996;28;19972;-62
2023/10/20 00:08:53;;;;;;;;;;;;;;;13.71;74.57;95413.72;4968855;28;20446;-62
2023/10/20 00:11:25;;;;;;;;;;;;;;;13.77;74.41;95412.16;4968629;28;19922;-62
2023/10/20 00:13:53;;;;;;;;;;;;;;;13.77;74.31;95396.56;4968174;28;19965;-62
2023/10/20 00:16:24;;;;;;;;;;;;;;;13.78;74.15;95391.88;4972277;28;19922;-62
2023/10/20 00:18:52;;;;;;;;;;;;;;;13.76;74.37;95386.03;4971977;28;20250;-62
2023/10/20 00:21:20;;;;;;;;;;;;;;;13.72;74.39;95382.53;4965837;28;19930;-62
2023/10/20 00:23:47;;;;;;;;;;;;;;;13.73;74.19;95379.41;4968318;28;19924;-62
2023/10/20 00:26:15;;;;;;;;;;;;;;;13.75;74.24;95376.31;4952588;28;19926;-62
2023/10/20 00:28:48;;;;;;;;;;;;;;;13.73;73.98;95384.09;4968503;28;19922;-63
2023/10/20 00:31:16;;;;;;;;;;;;;;;13.72;74.01;95388.00;4969831;28;19944;-62
2023/10/20 00:33:45;;;;;;;;;;;;;;;13.67;74.02;95385.66;4972252;28;19926;-62
2023/10/20 00:36:13;;;;;;;;;;;;;;;13.63;74.46;95375.56;4952763;28;19950;-62
2023/10/20 00:38:42;;;;;;;;;;;;;;;13.58;74.61;95375.13;4950644;28;19934;-62
2023/10/20 00:41:11;;;;;;;;;;;;;;;13.59;74.41;95361.13;4965123;28;20366;-62
2023/10/20 00:43:39;;;;;;;;;;;;;;;13.57;74.47;95358.00;4968970;28;19926;-62
2023/10/20 00:46:10;;;;;;;;;;;;;;;13.57;74.29;95358.00;4970448;28;20071;-63
2023/10/20 00:48:38;;;;;;;;;;;;;;;13.58;74.49;95350.59;4974978;28;20400;-63
2023/10/20 00:51:06;;;;;;;;;;;;;;;13.52;74.22;95331.13;4968806;28;19922;-62
2023/10/20 00:53:40;;;;;;;;;;;;;;;13.45;74.79;95333.88;4970130;28;19922;-62
2023/10/20 00:56:08;;;;;;;;;;;;;;;13.45;74.70;95347.50;4968933;28;19922;-62
2023/10/20 00:58:37;;;;;;;;;;;;;;;13.35;74.87;95349.06;4969325;28;19926;-63
2023/10/20 01:01:05;;;;;;;;;;;;;;;13.30;75.02;95344.00;4961887;28;19922;-62
2023/10/20 01:03:35;;;;;;;;;;;;;;;13.34;74.85;95335.84;4964653;28;19925;-62
2023/10/20 01:06:04;;;;;;;;;;;;;;;13.38;74.94;95344.81;4963089;28;20004;-63
2023/10/20 01:08:32;;;;;;;;;;;;;;;13.39;74.61;95346.34;4966297;28;19926;-63
2023/10/20 01:11:03;;;;;;;;;;;;;;;13.39;74.61;95340.13;4967444;28;20364;-62
2023/10/20 01:13:30;;;;;;;;;;;;;;;13.46;74.40;95338.16;4970127;28;20013;-63
2023/10/20 01:15:58;;;;;;;;;;;;;;;13.44;74.37;95340.50;4971051;28;19929;-63
2023/10/20 01:18:26;;;;;;;;;;;;;;;13.45;74.35;95342.06;4969511;28;19980;-62
2023/10/20 01:20:57;;;;;;;;;;;;;;;13.44;74.14;95339.72;4949253;28;19937;-63
2023/10/20 01:23:25;;;;;;;;;;;;;;;13.45;73.96;95333.88;4967364;28;19927;-62
2023/10/20 01:25:56;;;;;;;;;;;;;;;13.43;74.16;95333.50;4965106;28;20261;-63
2023/10/20 01:28:24;;;;;;;;;;;;;;;13.41;74.11;95335.03;4968384;28;20288;-62
2023/10/20 01:30:52;;;;;;;;;;;;;;;13.43;74.42;95336.22;4968299;28;19926;-62
2023/10/20 01:33:19;;;;;;;;;;;;;;;13.39;74.22;95346.34;4965571;28;20854;-62
2023/10/20 01:35:47;;;;;;;;;;;;;;;13.38;74.52;95336.63;4970437;28;19926;-62
2023/10/20 01:38:15;;;;;;;;;;;;;;;13.46;74.17;95327.25;4967108;28;19932;-63
2023/10/20 01:40:43;;;;;;;;;;;;;;;13.40;74.29;95325.31;4969906;28;19965;-62
2023/10/20 01:43:12;;;;;;;;;;;;;;;13.44;74.55;95318.69;4953483;28;20364;-62
2023/10/20 01:45:40;;;;;;;;;;;;;;;13.46;73.96;95318.28;4969995;28;19930;-62
2023/10/20 01:48:08;;;;;;;;;;;;;;;13.48;73.96;95316.72;4975520;28;19944;-62
2023/10/20 01:50:37;;;;;;;;;;;;;;;13.50;73.76;95308.91;4949417;28;19929;-62
2023/10/20 01:53:04;;;;;;;;;;;;;;;13.50;73.61;95302.69;4949968;28;19932;-63
2023/10/20 01:55:32;;;;;;;;;;;;;;;13.48;73.79;95294.91;4966630;28;19922;-62
2023/10/20 01:58:00;;;;;;;;;;;;;;;13.50;73.41;95283.59;4952798;28;19949;-62
2023/10/20 02:00:29;;;;;;;;;;;;;;;13.48;73.36;95294.13;4968063;28;19922;-63
2023/10/20 02:02:57;;;;;;;;;;;;;;;13.44;73.32;95296.09;4970197;28;19922;-62
2023/10/20 02:05:25;;;;;;;;;;;;;;;13.41;73.37;95289.47;4968846;28;20562;-62
2023/10/20 02:07:54;;;;;;;;;;;;;;;13.46;73.62;95283.59;4951739;28;20014;-63
2023/10/20 02:10:21;;;;;;;;;;;;;;;13.48;72.97;95284.00;4966695;28;20364;-62
2023/10/20 02:12:49;;;;;;;;;;;;;;;13.49;73.11;95280.09;4951709;28;20275;-63
2023/10/20 02:15:17;;;;;;;;;;;;;;;13.45;73.21;95268.41;4951570;28;19969;-63
2023/10/20 02:17:47;;;;;;;;;;;;;;;13.39;73.07;95259.09;4968477;28;19934;-62
2023/10/20 02:20:20;;;;;;;;;;;;;;;13.37;73.37;95253.25;4954597;28;19938;-62
2023/10/20 02:22:49;;;;;;;;;;;;;;;13.34;72.87;95259.47;4958959;28;20258;-63
2023/10/20 02:25:17;;;;;;;;;;;;;;;13.35;73.07;95255.59;4962105;28;20012;-62
2023/10/20 02:27:45;;;;;;;;;;;;;;;13.28;73.04;95248.19;4964994;28;19934;-63
2023/10/20 02:30:13;;;;;;;;;;;;;;;13.31;73.32;95249.34;4948496;28;19934;-62
2023/10/20 02:32:42;;;;;;;;;;;;;;;13.28;73.35;95248.19;4964558;28;19923;-63
2023/10/20 02:35:11;;;;;;;;;;;;;;;13.28;72.92;95234.56;4967337;28;19969;-63
2023/10/20 02:37:39;;;;;;;;;;;;;;;13.28;72.94;95236.53;4970039;28;19929;-62
2023/10/20 02:40:07;;;;;;;;;;;;;;;13.22;73.11;95230.69;4952761;28;19922;-63
2023/10/20 02:42:35;;;;;;;;;;;;;;;13.22;73.15;95238.09;4958570;28;20000;-62
2023/10/20 02:45:09;;;;;;;;;;;;;;;13.27;73.46;95234.97;4963723;28;19957;-62
2023/10/20 02:47:36;;;;;;;;;;;;;;;13.21;73.11;95226.41;4968809;28;19950;-62
2023/10/20 02:50:06;;;;;;;;;;;;;;;13.24;73.41;95227.56;4969284;28;19926;-62
2023/10/20 02:52:35;;;;;;;;;;;;;;;13.23;73.42;95226.78;4962420;28;20384;-62
2023/10/20 02:55:03;;;;;;;;;;;;;;;13.24;73.28;95228.34;4969953;28;19922;-62
2023/10/20 02:57:31;;;;;;;;;;;;;;;13.29;72.87;95224.44;4943318;29;19926;-62
2023/10/20 02:59:59;;;;;;;;;;;;;;;13.32;73.33;95219.00;4949500;28;19930;-63
2023/10/20 03:02:27;;;;;;;;;;;;;;;13.29;73.28;95210.81;4967111;28;19942;-63
2023/10/20 03:04:55;;;;;;;;;;;;;;;13.31;73.20;95205.72;4960687;28;19980;-62
2023/10/20 03:07:27;;;;;;;;;;;;;;;13.31;73.14;95187.41;4951105;28;19969;-62
2023/10/20 03:09:57;;;;;;;;;;;;;;;13.33;73.04;95182.38;4967575;28;20020;-63
2023/10/20 03:12:25;;;;;;;;;;;;;;;13.29;73.24;95178.09;4969938;28;20271;-63
2023/10/20 03:14:53;;;;;;;;;;;;;;;13.29;73.50;95189.78;4966099;28;20429;-62
2023/10/20 03:17:21;;;;;;;;;;;;;;;13.28;73.82;95180.03;4968748;28;20411;-63
2023/10/20 03:19:49;;;;;;;;;;;;;;;13.23;73.24;95166.03;4960935;28;19927;-63
2023/10/20 03:22:17;;;;;;;;;;;;;;;13.15;73.57;95156.28;4969199;28;19922;-63
2023/10/20 03:24:45;;;;;;;;;;;;;;;13.17;73.56;95153.97;4954822;28;19926;-62
2023/10/20 03:27:14;;;;;;;;;;;;;;;13.14;73.37;95149.28;4965640;28;19922;-63
2023/10/20 03:29:42;;;;;;;;;;;;;;;13.05;73.93;95142.31;4972267;28;19933;-62
2023/10/20 03:32:10;;;;;;;;;;;;;;;13.10;74.21;95130.22;4973568;28;19922;-63
2023/10/20 03:34:38;;;;;;;;;;;;;;;13.07;74.10;95123.63;4970814;28;19922;-63
2023/10/20 03:37:06;;;;;;;;;;;;;;;13.10;73.99;95122.84;4952706;28;20269;-62
2023/10/20 03:39:36;;;;;;;;;;;;;;;13.11;74.33;95108.03;4970930;28;20507;-62
2023/10/20 03:42:07;;;;;;;;;;;;;;;13.12;74.06;95100.63;4967967;28;19941;-62
2023/10/20 03:44:35;;;;;;;;;;;;;;;13.16;74.18;95084.28;4970519;28;19957;-62
2023/10/20 03:47:05;;;;;;;;;;;;;;;13.11;74.31;95080.78;4947310;28;19930;-62
2023/10/20 03:49:35;;;;;;;;;;;;;;;13.11;74.14;95067.16;4971237;28;20453;-62
2023/10/20 03:52:02;;;;;;;;;;;;;;;13.11;74.09;95067.16;4978040;28;19927;-62
2023/10/20 03:54:32;;;;;;;;;;;;;;;13.11;73.97;95061.69;4971942;28;19926;-62
2023/10/20 03:57:00;;;;;;;;;;;;;;;13.04;74.15;95064.44;4970161;28;20380;-62
2023/10/20 03:59:28;;;;;;;;;;;;;;;13.10;74.44;95062.06;4966212;28;19926;-62
2023/10/20 04:01:57;;;;;;;;;;;;;;;13.12;74.67;95070.66;4969342;28;19933;-62
2023/10/20 04:04:24;;;;;;;;;;;;;;;13.13;74.44;95082.31;4966626;28;19934;-62
2023/10/20 04:06:52;;;;;;;;;;;;;;;13.14;74.89;95087.38;4966053;28;20330;-62
2023/10/20 04:09:20;;;;;;;;;;;;;;;13.09;75.15;95101.41;4970573;28;19923;-62
2023/10/20 04:11:48;;;;;;;;;;;;;;;13.11;75.30;95102.59;4968345;28;19922;-62
2023/10/20 04:14:16;;;;;;;;;;;;;;;13.15;75.06;95102.53;4971721;28;19932;-62
2023/10/20 04:16:45;;;;;;;;;;;;;;;13.20;74.84;95095.91;4965292;28;19922;-62
2023/10/20 04:19:14;;;;;;;;;;;;;;;13.24;74.57;95080.34;4967831;28;19949;-62
2023/10/20 04:21:43;;;;;;;;;;;;;;;13.33;74.28;95067.84;4967467;28;19934;-62
2023/10/20 04:24:11;;;;;;;;;;;;;;;13.24;74.16;95053.09;4969589;28;19934;-63
2023/10/20 04:26:41;;;;;;;;;;;;;;;13.39;73.83;95045.63;4969542;28;19932;-62
2023/10/20 04:29:23;;;;;;;;;;;;;;;13.42;73.69;95042.84;4961148;28;19980;-63
2023/10/20 04:51:18;;;;;;;;;;;;;;;13.78;72.73;95007.13;4964633;28;19933;-62
2023/10/20 04:53:52;;;;;;;;;;;;;;;13.85;72.37;95001.63;4970743;28;19948;-62
2023/10/20 04:56:39;;;;;;;;;;;;;;;13.89;72.25;94991.44;4960484;28;20407;-62
2023/10/20 04:59:10;;;;;;;;;;;;;;;13.88;72.35;94987.16;4965916;28;19922;-63
2023/10/20 05:01:41;;;;;;;;;;;;;;;13.93;71.99;94984.00;4970003;28;19926;-62
2023/10/20 05:04:15;;;;;;;;;;;;;;;13.88;72.30;94971.56;4964325;28;19930;-62
2023/10/20 05:06:57;;;;;;;;;;;;;;;13.86;72.59;94967.72;4966225;28;19926;-62
2023/10/20 05:09:25;;;;;;;;;;;;;;;13.83;72.70;94957.59;4970187;28;19959;-62
2023/10/20 05:11:53;;;;;;;;;;;;;;;13.85;72.37;94947.06;4971550;28;19923;-62
2023/10/20 05:14:21;;;;;;;;;;;;;;;13.84;72.68;94945.47;4969694;28;19934;-62
2023/10/20 05:16:52;;;;;;;;;;;;;;;13.83;73.12;94952.13;4973435;28;19941;-61
2023/10/20 05:19:20;;;;;;;;;;;;;;;13.86;72.89;94941.19;4961865;28;19926;-62
2023/10/20 05:21:49;;;;;;;;;;;;;;;13.84;73.15;94938.06;4964996;28;19923;-62
2023/10/20 05:24:17;;;;;;;;;;;;;;;13.87;73.15;94941.97;4965815;28;20058;-62
2023/10/20 05:26:45;;;;;;;;;;;;;;;13.79;73.47;94949.41;4965423;28;19929;-62
2023/10/20 05:29:14;;;;;;;;;;;;;;;13.77;73.98;94945.56;4963894;28;20284;-62
2023/10/20 05:31:42;;;;;;;;;;;;;;;13.74;73.71;94944.44;4965181;28;19926;-63
2023/10/20 05:34:11;;;;;;;;;;;;;;;13.80;74.11;94942.03;4967040;28;19949;-62
2023/10/20 05:36:40;;;;;;;;;;;;;;;13.80;74.02;94933.84;4965866;28;19937;-62
2023/10/20 05:39:09;;;;;;;;;;;;;;;13.73;74.12;94912.84;4966210;28;19941;-62
2023/10/20 05:41:37;;;;;;;;;;;;;;;13.81;73.76;94911.59;4962534;28;19937;-62
2023/10/20 05:44:06;;;;;;;;;;;;;;;13.78;73.74;94906.19;4967777;28;19968;-62
2023/10/20 05:46:37;;;;;;;;;;;;;;;13.77;74.79;94910.09;4968786;28;19922;-62
2023/10/20 05:49:05;;;;;;;;;;;;;;;13.84;74.53;94910.78;4966921;28;19926;-62
2023/10/20 05:51:33;;;;;;;;;;;;;;;13.79;74.13;94905.00;4969314;28;19922;-61
2023/10/20 05:54:00;;;;;;;;;;;;;;;13.90;74.21;94897.47;4966554;28;19932;-61
2023/10/20 05:56:30;;;;;;;;;;;;;;;13.94;73.45;94884.56;4970004;28;19934;-62
2023/10/20 05:58:58;;;;;;;;;;;;;;;13.87;73.53;94871.00;4971531;28;19933;-62
2023/10/20 06:01:25;;;;;;;;;;;;;;;13.93;73.55;94874.84;4973602;28;20455;-62
2023/10/20 06:03:53;;;;;;;;;;;;;;;13.97;73.43;94870.13;4970600;28;20360;-62
2023/10/20 06:06:21;;;;;;;;;;;;;;;13.98;73.30;94866.22;4967143;28;19922;-62
2023/10/20 06:08:50;;;;;;;;;;;;;;;13.88;73.27;94862.41;4970971;28;19928;-62
2023/10/20 06:11:17;;;;;;;;;;;;;;;13.92;73.27;94864.34;4971387;28;19922;-63
2023/10/20 06:13:46;;;;;;;;;;;;;;;13.94;72.97;94860.00;4969098;28;19929;-62
2023/10/20 06:16:14;;;;;;;;;;;;;;;13.92;73.56;94847.97;4971163;28;19922;-63
2023/10/20 06:18:42;;;;;;;;;;;;;;;13.94;73.12;94849.09;4970567;28;19963;-63
2023/10/20 06:21:12;;;;;;;;;;;;;;;13.96;73.12;94840.53;4967767;28;19933;-62
2023/10/20 06:23:40;;;;;;;;;;;;;;;13.80;73.19;94833.66;4970251;28;19946;-62
2023/10/20 06:26:08;;;;;;;;;;;;;;;13.78;73.93;94813.41;4970817;28;19952;-62
2023/10/20 06:28:35;;;;;;;;;;;;;;;13.76;73.74;94804.88;4969570;28;19922;-62
2023/10/20 06:31:27;;;;;;;;;;;;;;;13.80;73.78;94795.47;4966705;28;19972;-62
2023/10/20 06:33:59;;;;;;;;;;;;;;;13.79;73.45;94782.22;4963188;28;19930;-62
2023/10/20 06:36:27;;;;;;;;;;;;;;;13.75;73.71;94776.03;4958668;28;20283;-62
2023/10/20 06:38:55;;;;;;;;;;;;;;;13.73;73.79;94795.53;4967968;28;19923;-62
2023/10/20 06:41:23;;;;;;;;;;;;;;;13.68;73.67;94787.03;4968488;28;19922;-63
2023/10/20 06:43:51;;;;;;;;;;;;;;;13.67;74.38;94777.28;4967444;28;19930;-62
2023/10/20 06:46:21;;;;;;;;;;;;;;;13.64;74.48;94765.25;4969401;28;20370;-62
2023/10/20 06:48:49;;;;;;;;;;;;;;;13.58;74.14;94751.28;4958541;28;20439;-62
2023/10/20 06:51:17;;;;;;;;;;;;;;;13.47;74.72;94739.72;4967986;28;19982;-62
2023/10/20 06:53:45;;;;;;;;;;;;;;;13.38;74.85;94719.59;4969373;28;19922;-62
2023/10/20 06:56:13;;;;;;;;;;;;;;;13.38;74.80;94709.44;4971771;28;19969;-64
2023/10/20 06:58:44;;;;;;;;;;;;;;;13.25;74.71;94690.09;4973704;28;19930;-62
2023/10/20 07:01:12;;;;;;;;;;;;;;;13.06;75.72;94677.84;4956361;28;19929;-62
2023/10/20 07:03:41;;;;;;;;;;;;;;;13.02;75.92;94657.25;4973928;28;19922;-62
2023/10/20 07:06:11;;;;;;;;;;;;;;;13.03;75.78;94656.06;4972131;28;19933;-62
2023/10/20 07:08:39;;;;;;;;;;;;;;;12.95;75.82;94643.72;4971309;28;19947;-62
2023/10/20 07:11:07;;;;;;;;;;;;;;;13.02;76.33;94640.91;4950390;28;19922;-62
2023/10/20 07:13:34;;;;;;;;;;;;;;;13.06;76.07;94634.22;4972608;28;19984;-62
2023/10/20 07:16:05;;;;;;;;;;;;;;;13.13;75.43;94619.75;4974456;28;19985;-62
2023/10/20 07:18:33;;;;;;;;;;;;;;;13.09;74.99;94617.06;4966767;28;19926;-62
2023/10/20 07:21:03;;;;;;;;;;;;;;;12.98;75.60;94615.63;4968666;28;19993;-62
2023/10/20 07:23:30;;;;;;;;;;;;;;;13.05;75.96;94613.63;4971613;28;19929;-62
2023/10/20 07:26:00;;;;;;;;;;;;;;;13.10;75.56;94618.63;4971368;28;20084;-62
2023/10/20 07:28:27;;;;;;;;;;;;;;;13.11;75.75;94622.13;4969737;28;20372;-62
2023/10/20 07:30:55;;;;;;;;;;;;;;;12.94;75.82;94610.22;4965145;28;19930;-62
2023/10/20 07:33:23;;;;;;;;;;;;;;;12.85;76.27;94599.81;4969461;28;19926;-62
2023/10/20 07:35:52;;;;;;;;;;;;;;;12.92;76.25;94598.97;4965139;28;19933;-62
2023/10/20 07:38:21;;;;;;;;;;;;;;;12.86;76.08;94603.31;4968375;28;19930;-62
2023/10/20 07:40:49;;;;;;;;;;;;;;;12.90;76.14;94600.56;4965887;28;19926;-62
2023/10/20 07:43:16;;;;;;;;;;;;;;;12.97;75.96;94601.25;4968317;28;19928;-62
2023/10/20 07:45:45;;;;;;;;;;;;;;;12.81;76.94;94595.59;4955059;28;19922;-62
2023/10/20 07:48:12;;;;;;;;;;;;;;;12.85;77.21;94596.31;4971680;28;19969;-62
2023/10/20 07:50:40;;;;;;;;;;;;;;;12.93;77.16;94597.78;4967897;28;19929;-62
2023/10/20 07:53:10;;;;;;;;;;;;;;;12.93;77.01;94597.78;4973378;28;19922;-62
2023/10/20 07:55:39;;;;;;;;;;;;;;;12.86;77.02;94586.97;4969367;28;19922;-62
2023/10/20 07:58:08;;;;;;;;;;;;;;;12.93;77.56;94573.25;4963844;28;19926;-62
2023/10/20 08:00:36;;;;;;;;;;;;;;;12.92;76.69;94573.66;4944041;29;19923;-62
2023/10/20 08:03:05;;;;;;;;;;;;;;;12.97;77.05;94575.94;4967508;28;19926;-62
2023/10/20 08:05:35;;;;;;;;;;;;;;;13.00;76.83;94586.81;4967426;28;19926;-63
2023/10/20 08:08:04;;;;;;;;;;;;;;;12.93;76.39;94575.97;4964513;28;20376;-62
2023/10/20 08:10:32;;;;;;;;;;;;;;;12.99;76.79;94557.22;4968030;28;19922;-63
2023/10/20 08:13:02;;;;;;;;;;;;;;;13.09;76.71;94550.88;4969680;28;19926;-63
2023/10/20 08:15:30;;;;;;;;;;;;;;;13.13;76.25;94550.84;4954091;28;20414;-62
2023/10/20 08:18:01;;;;;;;;;;;;;;;13.06;76.55;94573.50;4952883;28;19932;-63
2023/10/20 08:20:29;;;;;;;;;;;;;;;13.08;76.52;94576.59;4966365;28;19922;-62
2023/10/20 08:22:57;;;;;;;;;;;;;;;12.99;76.30;94574.34;4966944;28;19922;-62
2023/10/20 08:25:25;;;;;;;;;;;;;;;13.01;76.41;94572.00;4969513;28;19922;-62
2023/10/20 08:27:53;;;;;;;;;;;;;;;12.98;76.26;94569.31;4972681;28;19926;-62
2023/10/20 08:30:22;;;;;;;;;;;;;;;12.96;76.70;94575.19;4969771;28;19922;-62
2023/10/20 08:32:53;;;;;;;;;;;;;;;12.93;76.60;94572.50;4964751;28;19930;-63
2023/10/20 08:35:22;;;;;;;;;;;;;;;12.97;76.39;94570.50;4970772;28;19933;-63
2023/10/20 08:37:50;;;;;;;;;;;;;;;13.00;76.73;94578.63;4958074;28;20444;-63
2023/10/20 08:40:18;;;;;;;;;;;;;;;13.02;76.26;94570.81;4964076;28;19922;-63
2023/10/20 08:42:45;;;;;;;;;;;;;;;13.07;75.53;94548.56;4964824;28;19954;-63
2023/10/20 08:45:14;;;;;;;;;;;;;;;13.06;75.91;94560.66;4971793;28;19992;-63
2023/10/20 08:47:43;;;;;;;;;;;;;;;13.01;76.04;94566.56;4964937;28;19928;-62
2023/10/20 08:50:12;;;;;;;;;;;;;;;13.00;76.29;94575.16;4966528;28;20579;-62
2023/10/20 08:52:40;;;;;;;;;;;;;;;13.02;76.08;94548.25;4966382;28;19922;-63
2023/10/20 08:55:08;;;;;;;;;;;;;;;13.02;76.32;94548.25;4969324;28;20012;-62
2023/10/20 08:57:36;;;;;;;;;;;;;;;12.97;76.22;94554.91;4969846;28;19922;-63
2023/10/20 09:00:06;;;;;;;;;;;;;;;13.02;76.67;94559.91;4968790;28;19926;-62
2023/10/20 09:02:38;;;;;;;;;;;;;;;13.06;76.50;94546.25;4965157;28;19980;-63
2023/10/20 09:05:07;;;;;;;;;;;;;;;13.07;76.95;94534.94;4959039;28;19950;-63
2023/10/20 09:07:36;;;;;;;;;;;;;;;13.20;76.32;94550.72;4969715;28;19922;-63
2023/10/20 09:10:06;;;;;;;;;;;;;;;13.15;76.15;94543.00;4965532;28;19922;-62
2023/10/20 09:12:34;;;;;;;;;;;;;;;13.08;76.19;94543.88;4967898;28;19933;-63
2023/10/20 09:15:01;;;;;;;;;;;;;;;13.05;76.77;94540.03;4962732;28;19983;-63
2023/10/20 09:17:33;;;;;;;;;;;;;;;13.06;76.92;94535.34;4969311;28;19922;-63
2023/10/20 09:20:07;;;;;;;;;;;;;;;13.07;77.07;94542.34;4965687;28;20016;-62
2023/10/20 09:22:37;;;;;;;;;;;;;;;13.13;76.90;94545.38;4965924;28;19929;-62
2023/10/20 09:25:06;;;;;;;;;;;;;;;13.11;76.41;94549.28;4970549;28;19933;-63
2023/10/20 09:27:33;;;;;;;;;;;;;;;13.14;76.48;94546.94;4963540;28;20009;-64
2023/10/20 09:30:01;;;;;;;;;;;;;;;13.04;75.85;94543.91;4968338;28;19965;-63
2023/10/20 09:32:29;;;;;;;;;;;;;;;13.00;76.54;94535.03;4964477;28;19922;-63
2023/10/20 09:35:00;;;;;;;;;;;;;;;13.03;77.17;94547.84;4964058;28;19997;-63
2023/10/20 09:37:30;;;;;;;;;;;;;;;13.13;77.38;94534.47;4961261;28;19969;-63
2023/10/20 09:40:06;;;;;;;;;;;;;;;13.14;76.52;94530.56;4970401;28;19922;-63
2023/10/20 09:42:37;;;;;;;;;;;;;;;13.17;76.37;94535.22;4966375;28;19926;-64
2023/10/20 09:45:06;;;;;;;;;;;;;;;13.24;76.83;94541.38;4969268;28;20320;-63
2023/10/20 09:47:36;;;;;;;;;;;;;;;13.28;76.47;94535.88;4963259;28;19929;-64
2023/10/20 09:50:05;;;;;;;;;;;;;;;13.33;76.86;94533.44;4970019;28;20310;-64
2023/10/20 09:52:34;;;;;;;;;;;;;;;13.39;76.84;94531.03;4964636;28;19929;-63
2023/10/20 09:55:02;;;;;;;;;;;;;;;13.45;76.32;94526.66;4971620;28;19933;-63
2023/10/20 09:57:29;;;;;;;;;;;;;;;13.51;76.34;94519.56;4968775;28;20418;-63
2023/10/20 09:59:58;;;;;;;;;;;;;;;13.51;76.16;94510.59;4968258;28;19922;-64
2023/10/20 10:02:29;;;;;;;;;;;;;;;13.55;76.28;94516.78;4969982;28;19922;-63
2023/10/20 10:04:57;;;;;;;;;;;;;;;13.55;75.48;94522.25;4968747;28;19933;-63
2023/10/20 10:07:29;;;;;;;;;;;;;;;13.58;75.34;94527.66;4967240;28;19934;-64
2023/10/20 10:09:58;;;;;;;;;;;;;;;13.66;75.40;94517.38;4970830;28;19926;-63
2023/10/20 10:12:27;;;;;;;;;;;;;;;13.77;75.44;94519.94;4950442;28;19945;-64
2023/10/20 10:14:59;;;;;;;;;;;;;;;13.78;74.70;94524.22;4968214;28;20407;-63
2023/10/20 10:17:27;;;;;;;;;;;;;;;13.82;75.83;94525.69;4966287;28;19937;-63
2023/10/20 10:19:57;;;;;;;;;;;;;;;13.90;75.05;94531.81;4963241;28;19937;-64
2023/10/20 10:22:26;;;;;;;;;;;;;;;13.97;75.55;94534.44;4968664;28;20272;-64
2023/10/20 10:24:54;;;;;;;;;;;;;;;14.04;75.03;94536.28;4965266;28;19985;-64
2023/10/20 10:27:26;;;;;;;;;;;;;;;14.11;75.60;94534.22;4963091;28;19929;-64
2023/10/20 10:29:58;;;;;;;;;;;;;;;14.16;75.62;94549.31;4968769;28;20394;-64
2023/10/20 10:32:27;;;;;;;;;;;;;;;14.21;75.44;94545.34;4972649;28;20372;-64
2023/10/20 10:34:55;;;;;;;;;;;;;;;14.23;75.72;94554.66;4973266;28;20628;-64
2023/10/20 10:37:32;;;;;;;;;;;;;;;14.25;75.57;94556.97;4952832;28;19981;-63
2023/10/20 10:40:10;;;;;;;;;;;;;;;14.28;75.36;94554.19;4965114;28;19922;-63
2023/10/20 10:42:40;;;;;;;;;;;;;;;14.33;75.65;94564.63;4968013;28;19929;-63
2023/10/20 10:45:19;;;;;;;;;;;;;;;14.40;75.87;94577.38;4975626;28;19922;-63
2023/10/20 10:47:47;;;;;;;;;;;;;;;14.41;75.96;94593.34;4970509;28;19929;-64
2023/10/20 10:50:16;;;;;;;;;;;;;;;14.48;75.78;94608.88;4975861;28;19937;-65
2023/10/20 10:52:44;;;;;;;;;;;;;;;14.53;75.70;94605.66;4970689;28;20205;-64
2023/10/20 10:55:13;;;;;;;;;;;;;;;14.58;76.19;94607.13;4974526;28;19923;-65
2023/10/20 10:57:43;;;;;;;;;;;;;;;14.53;76.08;94651.31;4974667;28;19925;-64
2023/10/20 11:00:13;;;;;;;;;;;;;;;14.57;75.91;94641.13;4969179;28;19950;-64
2023/10/20 11:02:41;;;;;;;;;;;;;;;14.57;76.38;94620.03;4974232;28;19929;-64
2023/10/20 11:05:09;;;;;;;;;;;;;;;14.52;75.85;94617.78;4974915;28;19922;-64
2023/10/20 11:07:37;;;;;;;;;;;;;;;14.54;76.26;94620.09;4971678;28;19922;-64
2023/10/20 11:10:06;;;;;;;;;;;;;;;14.54;76.21;94609.97;4974682;28;20008;-64
2023/10/20 11:12:34;;;;;;;;;;;;;;;14.52;76.45;94620.50;4966455;28;19926;-63
2023/10/20 11:15:03;;;;;;;;;;;;;;;14.56;77.34;94636.84;4967122;28;19977;-63
2023/10/20 11:17:31;;;;;;;;;;;;;;;14.62;77.78;94655.06;4957426;28;20782;-63
2023/10/20 11:19:59;;;;;;;;;;;;;;;14.68;77.87;94656.13;4962221;28;20415;-64
2023/10/20 11:22:27;;;;;;;;;;;;;;;14.72;77.29;94661.53;4972149;28;19929;-64
2023/10/20 11:24:55;;;;;;;;;;;;;;;14.74;76.75;94670.09;4973300;28;19926;-64
2023/10/20 11:27:26;;;;;;;;;;;;;;;14.79;76.53;94671.56;4972932;28;19930;-64
2023/10/20 11:29:54;;;;;;;;;;;;;;;14.84;76.42;94669.13;4972456;28;19930;-63
2023/10/20 11:32:27;;;;;;;;;;;;;;;14.89;76.95;94681.53;4979246;28;19922;-63
2023/10/20 11:34:55;;;;;;;;;;;;;;;14.94;76.75;94689.25;4948813;28;19992;-64
2023/10/20 11:37:22;;;;;;;;;;;;;;;14.97;76.33;94693.09;4973274;28;20427;-63
2023/10/20 11:39:50;;;;;;;;;;;;;;;15.00;75.98;94689.56;4973407;28;19932;-64
2023/10/20 11:42:18;;;;;;;;;;;;;;;15.03;75.71;94688.72;4974690;28;19950;-63
2023/10/20 11:44:46;;;;;;;;;;;;;;;15.00;75.62;94682.13;4971592;28;19960;-63
2023/10/20 11:47:18;;;;;;;;;;;;;;;15.06;75.90;94683.19;4965436;28;19926;-63
2023/10/20 11:49:47;;;;;;;;;;;;;;;15.09;75.79;94674.16;4978192;28;19926;-63
2023/10/20 11:52:15;;;;;;;;;;;;;;;15.14;76.09;94701.00;4969273;28;19968;-63
2023/10/20 11:54:45;;;;;;;;;;;;;;;15.20;75.84;94698.56;4975153;28;19922;-63
2023/10/20 11:57:17;;;;;;;;;;;;;;;15.26;75.54;94720.72;4972849;28;19969;-63
2023/10/20 11:59:45;;;;;;;;;;;;;;;15.29;75.55;94700.75;4975685;28;19977;-64
2023/10/20 12:02:13;;;;;;;;;;;;;;;15.30;75.75;94715.97;4979759;28;20013;-63
2023/10/20 12:04:41;;;;;;;;;;;;;;;15.33;75.35;94707.69;4970620;28;19922;-64
2023/10/20 12:07:10;;;;;;;;;;;;;;;15.36;75.14;94703.34;4973909;28;19961;-63
2023/10/20 12:09:38;;;;;;;;;;;;;;;15.37;74.90;94678.28;4973439;28;19941;-64
2023/10/20 12:12:08;;;;;;;;;;;;;;;15.40;74.94;94693.13;4971923;28;19922;-64
2023/10/20 12:14:36;;;;;;;;;;;;;;;15.43;74.54;94695.00;4973950;28;19928;-64
2023/10/20 12:17:03;;;;;;;;;;;;;;;15.42;74.43;94707.13;4970116;28;19953;-64
2023/10/20 12:19:31;;;;;;;;;;;;;;;15.46;74.89;94713.31;4967495;28;19930;-64
2023/10/20 12:21:59;;;;;;;;;;;;;;;15.48;74.84;94710.91;4972791;28;19923;-64
2023/10/20 12:24:28;;;;;;;;;;;;;;;15.52;74.83;94710.84;4966990;28;19958;-63
2023/10/20 12:26:56;;;;;;;;;;;;;;;15.58;74.91;94720.13;4965964;28;19922;-64
2023/10/20 12:29:24;;;;;;;;;;;;;;;15.56;74.21;94714.31;4972868;28;19929;-64
2023/10/20 12:31:52;;;;;;;;;;;;;;;15.61;74.58;94717.31;4972909;28;19934;-67
2023/10/20 12:34:19;;;;;;;;;;;;;;;15.67;74.68;94718.38;4973161;28;19922;-63
2023/10/20 12:36:48;;;;;;;;;;;;;;;15.68;74.28;94721.91;4969718;28;19922;-64
2023/10/20 12:39:18;;;;;;;;;;;;;;;15.68;74.19;94722.66;4964886;28;19934;-63
2023/10/20 12:41:47;;;;;;;;;;;;;;;15.71;73.72;94730.03;4971571;28;20392;-63
2023/10/20 12:44:17;;;;;;;;;;;;;;;15.72;73.75;94725.34;4971298;28;20261;-63
2023/10/20 12:46:45;;;;;;;;;;;;;;;15.74;73.93;94733.13;4972728;28;19922;-63
2023/10/20 12:49:13;;;;;;;;;;;;;;;15.77;73.82;94729.56;4966127;28;20358;-63
2023/10/20 12:51:41;;;;;;;;;;;;;;;15.77;74.07;94735.03;4971590;28;20492;-63
2023/10/20 12:54:09;;;;;;;;;;;;;;;15.73;74.33;94726.88;4968262;28;20372;-63
2023/10/20 12:56:37;;;;;;;;;;;;;;;15.75;74.35;94737.41;4971678;28;19968;-64
2023/10/20 12:59:06;;;;;;;;;;;;;;;15.78;74.56;94736.56;4972479;28;19926;-63
2023/10/20 13:01:35;;;;;;;;;;;;;;;15.80;74.30;94745.13;4966009;28;19926;-64
2023/10/20 13:04:04;;;;;;;;;;;;;;;15.81;74.15;94749.38;4962382;28;19933;-64
2023/10/20 13:06:35;;;;;;;;;;;;;;;15.84;73.97;94748.56;4966520;28;20604;-63
2023/10/20 13:09:12;;;;;;;;;;;;;;;15.87;73.93;94756.72;4971357;28;19922;-63
2023/10/20 13:11:40;;;;;;;;;;;;;;;15.88;73.74;94754.75;4967864;28;19926;-64
2023/10/20 13:14:09;;;;;;;;;;;;;;;15.90;73.80;94749.59;4950458;28;19984;-64
2023/10/20 13:16:40;;;;;;;;;;;;;;;15.94;73.63;94758.53;4950589;28;19930;-64